Time;durP1;ratioP1;P1;durP2;ratioP2;P2;SDS_P1;SDS_P2;PMS_P1;PMS_P2;Temp;Humidity;BMP_temperature;BMP_pressure;BME280_temperature;BME280_humidity;BME280_pressure;Samples;Min_cycle;Max_cycle;Signal;HPM_P1;HPM_P2
2023/05/12 00:01:06;;;;;;;11.88;7.07;;;13.60;99.90;;;;;;5075008;28;20027;-77
2023/05/12 00:03:32;;;;;;;10.75;6.55;;;13.60;99.90;;;;;;5073642;28;20024;-76
2023/05/12 00:06:02;;;;;;;13.18;6.45;;;13.60;99.90;;;;;;5073900;28;20503;-86
2023/05/12 00:08:28;;;;;;;9.88;6.43;;;13.60;99.90;;;;;;5074896;28;20111;-81
2023/05/12 00:10:54;;;;;;;12.68;7.93;;;13.60;99.90;;;;;;5073771;28;20515;-80
2023/05/12 00:13:22;;;;;;;16.52;7.90;;;13.60;99.90;;;;;;5057074;28;20025;-79
2023/05/12 00:15:48;;;;;;;11.30;6.68;;;13.50;99.90;;;;;;5074717;28;20028;-82
2023/05/12 00:18:13;;;;;;;12.23;7.55;;;13.50;99.90;;;;;;5074707;28;20033;-80
2023/05/12 00:20:39;;;;;;;12.55;8.02;;;13.50;99.90;;;;;;5074613;28;20048;-82
2023/05/12 00:23:05;;;;;;;12.10;7.32;;;13.40;99.90;;;;;;5073336;28;20499;-83
2023/05/12 00:25:30;;;;;;;11.95;7.50;;;13.40;99.90;;;;;;5073306;28;20412;-82
2023/05/12 00:27:56;;;;;;;10.95;6.95;;;13.40;99.90;;;;;;5074564;28;20040;-82
2023/05/12 00:30:22;;;;;;;10.73;6.57;;;13.40;99.90;;;;;;5074491;28;20035;-83
2023/05/12 00:32:48;;;;;;;10.60;6.13;;;13.40;99.90;;;;;;5074485;28;20036;-84
2023/05/12 00:35:14;;;;;;;11.02;7.28;;;13.40;99.90;;;;;;5056992;28;20075;-83
2023/05/12 00:37:41;;;;;;;11.07;7.03;;;13.40;99.90;;;;;;5073195;28;20028;-82
2023/05/12 00:40:07;;;;;;;11.90;7.20;;;13.40;99.90;;;;;;5073107;28;20025;-82
2023/05/12 00:42:34;;;;;;;12.05;6.53;;;13.30;99.90;;;;;;5074252;28;20023;-81
2023/05/12 00:45:00;;;;;;;10.32;5.38;;;13.30;99.90;;;;;;5074221;28;20024;-81
2023/05/12 00:47:26;;;;;;;10.00;5.65;;;13.30;99.90;;;;;;5073585;28;20024;-82
2023/05/12 00:49:52;;;;;;;8.70;5.28;;;13.40;99.90;;;;;;5073756;28;20123;-84
2023/05/12 00:52:18;;;;;;;9.73;6.13;;;13.30;99.90;;;;;;5074425;28;20110;-80
2023/05/12 00:54:45;;;;;;;8.73;5.30;;;13.30;99.90;;;;;;5072800;28;20031;-78
2023/05/12 00:57:11;;;;;;;8.73;5.13;;;13.30;99.90;;;;;;5072838;28;20036;-77
2023/05/12 00:59:37;;;;;;;8.90;5.05;;;13.30;99.90;;;;;;5072720;28;20060;-77
2023/05/12 01:02:03;;;;;;;9.93;4.57;;;13.30;99.90;;;;;;5056105;28;20507;-77
2023/05/12 01:04:29;;;;;;;8.40;5.18;;;13.20;99.90;;;;;;5073897;28;20393;-77
2023/05/12 01:06:59;;;;;;;8.82;4.22;;;13.20;99.90;;;;;;5073722;28;20047;-76
2023/05/12 01:09:25;;;;;;;7.07;3.95;;;13.20;99.90;;;;;;5073626;28;20074;-77
2023/05/12 01:11:51;;;;;;;8.60;4.45;;;13.20;99.90;;;;;;5072625;28;20029;-77
2023/05/12 01:14:17;;;;;;;6.63;3.25;;;13.20;99.90;;;;;;5055811;28;20054;-77
2023/05/12 01:16:51;;;;;;;8.52;3.70;;;13.20;99.90;;;;;;5073602;28;20031;-77
2023/05/12 01:19:46;;;;;;;7.65;3.00;;;13.10;99.90;;;;;;5073562;28;20028;-78
2023/05/12 01:22:12;;;;;;;5.85;2.90;;;13.10;99.90;;;;;;5072289;28;20024;-77
2023/05/12 01:24:45;;;;;;;6.30;3.10;;;13.10;99.90;;;;;;5073515;28;20032;-77
2023/05/12 01:27:12;;;;;;;5.90;2.60;;;13.10;99.90;;;;;;5072190;28;20144;-77
2023/05/12 01:29:38;;;;;;;4.70;2.35;;;13.10;99.90;;;;;;5072015;28;20028;-77
2023/05/12 01:32:04;;;;;;;4.30;2.00;;;13.10;99.90;;;;;;5072291;28;20378;-77
2023/05/12 01:34:32;;;;;;;4.78;2.45;;;13.10;99.90;;;;;;5072145;28;20033;-77
2023/05/12 01:36:58;;;;;;;4.22;2.00;;;13.10;99.90;;;;;;5071965;28;20024;-76
2023/05/12 01:39:24;;;;;;;3.45;1.80;;;13.10;99.90;;;;;;5073205;28;20033;-77
2023/05/12 01:41:49;;;;;;;3.53;1.70;;;13.10;99.90;;;;;;5073277;28;20037;-77
2023/05/12 01:44:15;;;;;;;4.45;1.73;;;13.10;99.90;;;;;;5072157;28;20032;-76
2023/05/12 01:46:41;;;;;;;4.18;1.85;;;13.00;99.90;;;;;;5073257;28;20031;-78
2023/05/12 01:49:06;;;;;;;3.08;1.38;;;13.10;99.90;;;;;;5071844;28;20052;-76
2023/05/12 01:51:32;;;;;;;3.50;1.50;;;13.10;99.90;;;;;;5073117;28;20037;-77
2023/05/12 01:53:58;;;;;;;2.70;1.15;;;13.00;99.90;;;;;;5072962;28;20485;-77
2023/05/12 01:56:23;;;;;;;3.33;1.30;;;13.10;99.90;;;;;;5072980;28;20024;-82
2023/05/12 01:58:49;;;;;;;2.90;1.15;;;13.00;99.90;;;;;;5071637;28;20037;-84
2023/05/12 02:01:15;;;;;;;3.92;1.45;;;13.00;99.90;;;;;;5055282;28;20036;-86
2023/05/12 02:03:40;;;;;;;3.80;1.60;;;13.00;99.90;;;;;;5073188;28;20035;-82
2023/05/12 02:06:06;;;;;;;4.20;1.83;;;13.00;99.90;;;;;;5072980;28;20032;-84
2023/05/12 02:08:32;;;;;;;4.50;1.75;;;13.00;99.90;;;;;;5071874;28;20119;-85
2023/05/12 02:11:05;;;;;;;4.95;1.67;;;13.00;99.90;;;;;;5071959;28;20040;-87
2023/05/12 02:13:31;;;;;;;6.05;2.67;;;13.00;99.90;;;;;;5073013;28;20024;-84
2023/05/12 02:15:57;;;;;;;4.60;1.98;;;13.00;99.90;;;;;;5072933;28;20025;-86
2023/05/12 02:18:22;;;;;;;5.55;2.25;;;13.00;99.90;;;;;;5055036;28;20503;-86
2023/05/12 02:20:48;;;;;;;6.93;3.38;;;13.00;99.90;;;;;;5072962;28;20033;-86
2023/05/12 02:23:14;;;;;;;6.00;3.22;;;12.90;99.90;;;;;;5071637;28;20480;-83
2023/05/12 02:25:40;;;;;;;5.82;3.08;;;12.90;99.90;;;;;;5055047;28;20033;-86
2023/05/12 02:28:09;;;;;;;10.10;4.25;;;13.00;99.90;;;;;;5071520;28;20103;-85
2023/05/12 02:30:35;;;;;;;10.10;4.18;;;12.90;99.90;;;;;;5055426;28;20017;-87
2023/05/12 02:33:01;;;;;;;11.32;5.43;;;12.90;99.90;;;;;;5071603;28;20017;-82
2023/05/12 02:35:27;;;;;;;10.43;5.65;;;12.90;99.90;;;;;;5054803;28;20035;-86
2023/05/12 02:37:52;;;;;;;11.63;5.70;;;12.90;99.90;;;;;;5071686;28;20099;-86
2023/05/12 02:40:18;;;;;;;10.68;6.03;;;12.90;99.90;;;;;;5071541;28;20119;-83
2023/05/12 02:42:44;;;;;;;12.77;6.80;;;12.90;99.90;;;;;;5071639;28;20025;-81
2023/05/12 02:45:10;;;;;;;12.68;6.93;;;12.90;99.90;;;;;;5071562;28;20035;-80
2023/05/12 02:47:36;;;;;;;13.50;7.38;;;12.90;99.90;;;;;;5072709;28;20037;-82
2023/05/12 02:50:02;;;;;;;18.70;8.93;;;12.90;99.90;;;;;;5071200;28;20060;-84
2023/05/12 02:52:28;;;;;;;14.73;7.85;;;12.90;99.90;;;;;;5071499;28;20028;-82
2023/05/12 02:54:54;;;;;;;20.10;9.90;;;12.90;99.90;;;;;;5072657;28;20029;-83
2023/05/12 02:57:20;;;;;;;16.25;8.65;;;12.90;99.90;;;;;;5054694;28;20020;-83
2023/05/12 02:59:46;;;;;;;18.83;10.07;;;12.80;99.90;;;;;;5071349;28;20033;-83
2023/05/12 03:02:12;;;;;;;17.85;9.55;;;12.90;99.90;;;;;;5071203;28;20048;-83
2023/05/12 03:04:37;;;;;;;17.50;10.77;;;12.90;99.90;;;;;;5072413;28;20028;-80
2023/05/12 03:07:03;;;;;;;23.63;12.23;;;12.90;99.90;;;;;;5071131;28;20060;-84
2023/05/12 03:09:29;;;;;;;23.40;12.02;;;12.80;99.90;;;;;;5088133;28;20112;-86
2023/05/12 03:11:55;;;;;;;16.90;10.10;;;12.80;99.90;;;;;;5074429;28;20029;-80
2023/05/12 03:14:20;;;;;;;22.80;11.73;;;12.80;99.90;;;;;;5092055;28;20039;-85
2023/05/12 03:16:46;;;;;;;24.48;13.48;;;12.80;99.90;;;;;;5074836;28;20042;-84
2023/05/12 03:19:11;;;;;;;19.23;11.80;;;12.80;99.90;;;;;;5075872;28;20044;-82
2023/05/12 03:21:37;;;;;;;23.20;13.57;;;12.80;99.90;;;;;;5075940;28;20063;-81
2023/05/12 03:24:03;;;;;;;23.73;13.85;;;12.80;99.90;;;;;;5075884;28;20032;-80
2023/05/12 03:26:29;;;;;;;26.25;14.65;;;12.80;99.90;;;;;;5074486;28;20032;-77
2023/05/12 03:28:55;;;;;;;24.42;14.20;;;12.80;99.90;;;;;;5057748;28;20043;-76
2023/05/12 03:31:20;;;;;;;26.55;14.02;;;12.80;99.90;;;;;;5091260;28;20032;-77
2023/05/12 03:33:46;;;;;;;25.70;14.30;;;12.80;99.90;;;;;;5075485;28;20032;-76
2023/05/12 03:36:11;;;;;;;24.48;14.18;;;12.80;99.90;;;;;;5074398;28;20477;-76
2023/05/12 03:38:37;;;;;;;25.83;15.82;;;12.80;99.90;;;;;;5091257;28;20086;-76
2023/05/12 03:41:04;;;;;;;26.40;14.65;;;12.80;99.90;;;;;;5075618;28;20029;-79
2023/05/12 03:43:30;;;;;;;31.30;17.20;;;12.80;99.90;;;;;;5091248;28;20028;-77
2023/05/12 03:45:56;;;;;;;27.33;16.52;;;12.80;99.90;;;;;;5074072;28;20062;-80
2023/05/12 03:48:21;;;;;;;29.00;16.73;;;12.80;99.90;;;;;;5091032;28;20397;-82
2023/05/12 03:50:47;;;;;;;26.92;15.82;;;12.70;99.90;;;;;;5090711;28;20177;-80
2023/05/12 03:53:13;;;;;;;30.25;16.92;;;12.70;99.90;;;;;;5057490;28;20027;-81
2023/05/12 03:55:39;;;;;;;27.75;15.18;;;12.80;99.90;;;;;;5075225;28;20538;-83
2023/05/12 03:58:06;;;;;;;30.02;16.92;;;12.80;99.90;;;;;;5073945;28;20024;-82
2023/05/12 04:00:31;;;;;;;34.10;19.55;;;12.80;99.90;;;;;;5090857;28;20128;-81
2023/05/12 04:02:57;;;;;;;33.90;19.27;;;12.80;99.90;;;;;;5073790;28;20115;-86
2023/05/12 04:05:23;;;;;;;36.63;20.30;;;12.80;99.90;;;;;;5073766;28;20048;-83
2023/05/12 04:07:49;;;;;;;32.25;18.15;;;12.80;99.90;;;;;;5090497;28;20488;-85
2023/05/12 04:10:15;;;;;;;33.15;19.40;;;12.80;99.90;;;;;;5075031;28;20488;-84
2023/05/12 04:12:40;;;;;;;31.35;19.05;;;12.90;99.90;;;;;;5073714;28;20380;-84
2023/05/12 04:15:07;;;;;;;32.40;19.80;;;12.90;99.90;;;;;;5073651;28;20115;-85
2023/05/12 04:17:33;;;;;;;33.78;19.50;;;12.90;99.90;;;;;;5073489;28;20048;-83
2023/05/12 04:19:58;;;;;;;36.92;20.85;;;12.90;99.90;;;;;;5073561;28;20037;-81
2023/05/12 04:22:24;;;;;;;35.45;20.65;;;13.00;99.90;;;;;;5089682;28;20572;-83
2023/05/12 04:24:50;;;;;;;32.30;19.27;;;13.00;99.90;;;;;;5090093;28;20040;-82
2023/05/12 04:27:15;;;;;;;33.97;19.50;;;13.00;99.90;;;;;;5074701;28;20428;-82
2023/05/12 04:29:41;;;;;;;39.78;22.75;;;13.00;99.90;;;;;;5090083;28;20025;-83
2023/05/12 04:32:07;;;;;;;39.13;23.02;;;13.10;99.90;;;;;;5072121;28;20020;-81
2023/05/12 04:34:32;;;;;;;36.25;21.48;;;13.00;99.90;;;;;;5071835;28;20465;-82
2023/05/12 04:36:58;;;;;;;38.80;23.10;;;13.10;99.90;;;;;;5073059;28;20050;-82
2023/05/12 04:39:24;;;;;;;36.95;21.52;;;13.10;99.90;;;;;;5072903;28;20074;-82
2023/05/12 04:41:49;;;;;;;34.58;21.10;;;13.20;99.90;;;;;;5072824;28;20028;-82
2023/05/12 04:44:15;;;;;;;33.55;20.95;;;13.20;99.90;;;;;;5073046;28;20033;-82
2023/05/12 04:46:42;;;;;;;37.03;22.92;;;13.30;99.90;;;;;;5071881;28;20020;-83
2023/05/12 04:49:07;;;;;;;37.90;22.02;;;13.30;99.90;;;;;;5072877;28;20032;-84
2023/05/12 04:51:33;;;;;;;40.67;24.05;;;13.40;99.90;;;;;;5072869;28;20405;-83
2023/05/12 04:53:58;;;;;;;43.60;24.83;;;13.30;99.90;;;;;;5072885;28;20070;-82
2023/05/12 04:56:24;;;;;;;45.75;26.42;;;13.40;99.90;;;;;;5056394;28;20051;-81
2023/05/12 04:58:50;;;;;;;46.92;27.73;;;13.50;99.90;;;;;;5074090;28;20048;-82
2023/05/12 05:01:15;;;;;;;46.67;27.38;;;13.50;99.90;;;;;;5074068;28;20063;-80
2023/05/12 05:03:41;;;;;;;43.80;27.30;;;13.50;99.90;;;;;;5073913;28;20028;-80
2023/05/12 05:06:07;;;;;;;43.47;25.67;;;13.50;99.90;;;;;;5073836;28;20029;-82
2023/05/12 05:08:32;;;;;;;41.05;25.58;;;13.50;99.90;;;;;;5073655;28;20024;-82
2023/05/12 05:10:58;;;;;;;44.22;26.63;;;13.60;99.90;;;;;;5072611;28;20029;-83
2023/05/12 05:13:24;;;;;;;44.25;26.58;;;13.70;99.90;;;;;;5072586;28;20151;-84
2023/05/12 05:15:51;;;;;;;47.45;27.20;;;13.70;99.90;;;;;;5055348;28;20046;-81
2023/05/12 05:18:17;;;;;;;46.53;28.15;;;13.80;99.90;;;;;;5055317;28;20025;-82
2023/05/12 05:20:44;;;;;;;40.60;24.65;;;13.70;99.90;;;;;;5071953;28;20108;-82
2023/05/12 05:23:10;;;;;;;44.58;25.15;;;13.80;99.90;;;;;;5055770;28;20029;-83
2023/05/12 05:25:35;;;;;;;49.15;25.40;;;13.80;99.90;;;;;;5072304;28;20036;-83
2023/05/12 05:28:01;;;;;;;39.47;24.77;;;13.90;99.90;;;;;;5055515;28;20124;-82
2023/05/12 05:30:27;;;;;;;40.78;23.67;;;13.90;99.90;;;;;;5055434;28;20477;-83
2023/05/12 05:32:53;;;;;;;38.80;23.17;;;13.90;99.90;;;;;;5055074;28;20024;-83
2023/05/12 05:35:18;;;;;;;36.55;22.35;;;14.00;99.90;;;;;;5071345;28;20031;-82
2023/05/12 05:37:44;;;;;;;36.45;21.65;;;14.00;99.90;;;;;;5072229;28;20074;-84
2023/05/12 05:40:10;;;;;;;35.70;22.13;;;14.10;99.90;;;;;;5055037;28;20024;-83
2023/05/12 05:42:36;;;;;;;33.95;22.13;;;14.10;99.90;;;;;;5055249;28;20024;-84
2023/05/12 05:45:01;;;;;;;37.20;23.15;;;14.20;99.90;;;;;;5071921;28;20078;-83
2023/05/12 05:47:27;;;;;;;34.10;22.02;;;14.30;99.90;;;;;;5072111;28;20120;-84
2023/05/12 05:49:54;;;;;;;33.53;21.20;;;14.30;99.90;;;;;;5055156;28;20048;-85
2023/05/12 05:52:19;;;;;;;33.53;21.98;;;14.30;99.90;;;;;;5055340;28;20029;-84
2023/05/12 05:54:45;;;;;;;33.60;21.23;;;14.40;99.90;;;;;;5054931;28;20025;-84
2023/05/12 05:57:11;;;;;;;33.50;22.55;;;14.50;99.90;;;;;;5071579;28;20033;-85
2023/05/12 05:59:37;;;;;;;32.42;21.70;;;14.50;99.90;;;;;;5071072;28;20028;-85
2023/05/12 06:02:02;;;;;;;29.33;19.67;;;14.50;99.90;;;;;;5054339;28;20039;-83
2023/05/12 06:04:28;;;;;;;32.10;21.75;;;14.60;99.90;;;;;;5071832;28;20032;-82
2023/05/12 06:06:54;;;;;;;34.60;23.05;;;14.60;99.90;;;;;;5071916;28;20032;-83
2023/05/12 06:09:19;;;;;;;29.33;20.55;;;14.70;99.90;;;;;;5055594;28;20064;-84
2023/05/12 06:11:45;;;;;;;29.80;19.92;;;14.80;99.90;;;;;;5071480;28;20052;-81
2023/05/12 06:14:11;;;;;;;26.40;19.15;;;14.80;99.90;;;;;;5071812;28;20027;-84
2023/05/12 06:16:36;;;;;;;30.88;21.67;;;14.90;99.90;;;;;;5072949;28;20476;-83
2023/05/12 06:19:02;;;;;;;27.10;18.27;;;14.90;99.90;;;;;;5072551;28;20037;-80
2023/05/12 06:21:28;;;;;;;29.70;20.15;;;15.00;99.90;;;;;;5071496;28;20439;-85
2023/05/12 06:23:55;;;;;;;30.98;21.25;;;15.00;99.90;;;;;;5055611;28;20024;-82
2023/05/12 06:26:21;;;;;;;32.47;20.90;;;15.10;99.90;;;;;;5072019;28;20082;-83
2023/05/12 06:28:46;;;;;;;28.65;18.85;;;15.10;99.90;;;;;;5072636;28;20033;-84
2023/05/12 06:31:12;;;;;;;31.90;21.63;;;15.10;99.90;;;;;;5071473;28;20021;-81
2023/05/12 06:33:38;;;;;;;31.02;20.90;;;15.20;99.90;;;;;;5071812;28;20028;-85
2023/05/12 06:36:04;;;;;;;27.45;19.67;;;15.20;99.90;;;;;;5071452;28;20021;-80
2023/05/12 06:38:30;;;;;;;27.35;18.13;;;15.30;99.90;;;;;;5071937;28;20032;-80
2023/05/12 06:40:55;;;;;;;29.63;18.98;;;15.30;99.90;;;;;;5071478;28;20044;-80
2023/05/12 06:43:22;;;;;;;28.42;18.92;;;15.30;99.90;;;;;;5071613;28;20033;-81
2023/05/12 06:45:47;;;;;;;25.08;18.98;;;15.40;99.90;;;;;;5073243;28;20427;-85
2023/05/12 06:48:13;;;;;;;26.02;18.63;;;15.50;99.90;;;;;;5075664;28;20036;-84
2023/05/12 06:50:39;;;;;;;25.75;18.55;;;15.50;99.90;;;;;;5075148;28;20044;-84
2023/05/12 06:53:06;;;;;;;23.40;17.55;;;15.60;99.90;;;;;;5075097;28;20032;-83
2023/05/12 06:55:33;;;;;;;27.33;17.73;;;15.70;99.90;;;;;;5076836;28;20016;-81
2023/05/12 06:57:58;;;;;;;23.05;17.13;;;15.70;99.90;;;;;;5074914;28;20056;-86
2023/05/12 07:00:24;;;;;;;22.55;17.40;;;15.70;99.90;;;;;;5075080;28;20029;-85
2023/05/12 07:02:52;;;;;;;23.05;16.67;;;15.80;99.90;;;;;;5074986;28;20121;-84
2023/05/12 07:05:17;;;;;;;22.17;16.55;;;15.90;99.90;;;;;;5076191;28;20070;-83
2023/05/12 07:07:44;;;;;;;25.95;18.38;;;15.90;99.90;;;;;;5074784;28;20033;-85
2023/05/12 07:10:10;;;;;;;23.92;15.98;;;15.90;99.90;;;;;;5074866;28;20058;-83
2023/05/12 07:12:37;;;;;;;23.40;18.30;;;16.00;99.90;;;;;;5074908;28;20115;-82
2023/05/12 07:15:03;;;;;;;23.58;16.02;;;16.00;99.90;;;;;;5058337;28;20123;-86
2023/05/12 07:17:29;;;;;;;21.35;16.17;;;16.00;99.90;;;;;;5074790;28;20130;-87
2023/05/12 07:19:55;;;;;;;21.55;15.35;;;16.10;99.90;;;;;;5074745;28;20384;-83
2023/05/12 07:22:20;;;;;;;23.05;14.82;;;16.10;99.90;;;;;;5058742;28;20036;-84
2023/05/12 07:24:46;;;;;;;19.50;13.20;;;16.20;99.90;;;;;;5075380;28;20047;-80
2023/05/12 07:27:12;;;;;;;16.98;12.55;;;16.20;99.90;;;;;;5074417;28;20029;-84
2023/05/12 07:29:37;;;;;;;17.90;12.70;;;16.30;99.90;;;;;;5074304;28;20035;-87
2023/05/12 07:32:03;;;;;;;15.15;11.07;;;16.40;99.90;;;;;;5074508;28;20033;-85
2023/05/12 07:34:31;;;;;;;14.23;11.48;;;16.50;99.90;;;;;;5074316;28;20424;-84
2023/05/12 07:36:58;;;;;;;13.52;10.13;;;16.50;99.90;;;;;;5075588;28;20040;-81
2023/05/12 07:39:24;;;;;;;14.73;9.95;;;16.60;99.90;;;;;;5075606;28;20029;-82
2023/05/12 07:41:51;;;;;;;13.27;9.88;;;16.70;99.90;;;;;;5074285;28;20025;-84
2023/05/12 07:44:17;;;;;;;13.25;9.45;;;16.70;99.90;;;;;;5074309;28;20497;-87
2023/05/12 07:46:43;;;;;;;12.02;8.77;;;16.80;99.90;;;;;;5074306;28;20033;-84
2023/05/12 07:49:09;;;;;;;13.85;10.15;;;16.80;99.90;;;;;;5057901;28;20060;-83
2023/05/12 07:51:34;;;;;;;12.85;9.85;;;16.80;99.90;;;;;;5074157;28;20433;-87
2023/05/12 07:54:00;;;;;;;14.80;10.60;;;16.80;99.90;;;;;;5058238;28;20020;-85
2023/05/12 07:56:26;;;;;;;15.00;10.02;;;16.90;99.90;;;;;;5076834;28;20115;-86
2023/05/12 07:58:51;;;;;;;15.30;10.15;;;16.90;99.90;;;;;;5074474;28;20384;-84
2023/05/12 08:01:17;;;;;;;13.43;9.43;;;16.90;99.90;;;;;;5074070;28;20491;-82
2023/05/12 08:03:42;;;;;;;11.90;8.48;;;17.00;99.90;;;;;;5073901;28;20028;-83
2023/05/12 08:06:08;;;;;;;11.85;9.20;;;17.00;99.90;;;;;;5074033;28;20039;-85
2023/05/12 08:08:35;;;;;;;13.55;10.45;;;17.00;99.90;;;;;;5073875;28;20484;-81
2023/05/12 08:11:01;;;;;;;13.05;9.70;;;17.10;99.90;;;;;;5073787;28;20020;-84
2023/05/12 08:13:26;;;;;;;11.80;8.63;;;17.10;99.90;;;;;;5073731;28;20013;-85
2023/05/12 08:15:52;;;;;;;12.77;8.25;;;17.20;99.90;;;;;;5057097;28;20025;-86
2023/05/12 08:18:18;;;;;;;9.85;7.60;;;17.20;99.90;;;;;;5056925;28;20123;-83
2023/05/12 08:20:43;;;;;;;10.57;8.00;;;17.20;99.90;;;;;;5074203;28;20079;-83
2023/05/12 08:23:09;;;;;;;10.73;7.30;;;17.30;99.90;;;;;;5056968;28;20021;-84
2023/05/12 08:25:35;;;;;;;11.15;7.18;;;17.40;99.90;;;;;;5073563;28;20032;-85
2023/05/12 08:28:02;;;;;;;11.50;7.53;;;17.50;99.90;;;;;;5073687;28;20028;-83
2023/05/12 08:30:28;;;;;;;10.10;6.60;;;17.60;99.90;;;;;;5074614;28;20043;-85
2023/05/12 08:32:55;;;;;;;8.82;6.18;;;17.70;99.90;;;;;;5073458;28;20028;-85
2023/05/12 08:35:21;;;;;;;10.18;6.60;;;17.80;99.90;;;;;;5073327;28;20381;-85
2023/05/12 08:37:47;;;;;;;9.35;5.95;;;17.90;99.90;;;;;;5073448;28;20021;-86
2023/05/12 08:40:19;;;;;;;8.18;5.57;;;18.00;99.90;;;;;;5073134;28;20431;-85
2023/05/12 08:43:03;;;;;;;6.88;5.20;;;18.10;99.90;;;;;;5074534;28;20527;-85
2023/05/12 08:45:28;;;;;;;6.70;4.57;;;18.10;99.90;;;;;;5074514;28;20021;-83
2023/05/12 08:47:55;;;;;;;8.48;4.78;;;18.30;99.90;;;;;;5073321;28;20631;-83
2023/05/12 08:50:22;;;;;;;7.57;4.57;;;18.40;99.60;;;;;;5072797;28;20090;-85
2023/05/12 08:52:48;;;;;;;5.35;4.10;;;18.40;99.20;;;;;;5074155;28;20032;-85
2023/05/12 08:55:14;;;;;;;5.68;3.92;;;18.50;99.00;;;;;;5072965;28;20025;-86
2023/05/12 08:57:44;;;;;;;6.03;3.75;;;18.60;98.70;;;;;;5074633;28;20059;-83
2023/05/12 09:00:11;;;;;;;4.85;3.58;;;18.80;98.50;;;;;;5056841;28;20029;-87
2023/05/12 09:02:39;;;;;;;4.90;3.38;;;18.90;98.30;;;;;;5055904;28;20051;-84
2023/05/12 09:05:06;;;;;;;4.90;3.40;;;19.10;97.90;;;;;;5072526;28;20025;-83
2023/05/12 09:07:33;;;;;;;5.18;2.83;;;19.20;97.50;;;;;;5072556;28;20553;-83
2023/05/12 09:10:02;;;;;;;6.88;2.90;;;19.30;96.30;;;;;;5055342;28;20039;-84
2023/05/12 09:12:30;;;;;;;4.50;2.42;;;19.40;96.00;;;;;;5072677;28;20031;-85
2023/05/12 09:15:04;;;;;;;4.57;1.98;;;19.60;95.60;;;;;;5072585;28;20051;-83
2023/05/12 09:17:30;;;;;;;4.32;2.22;;;19.70;95.00;;;;;;5073872;28;20033;-85
2023/05/12 09:19:55;;;;;;;4.80;1.50;;;19.90;94.70;;;;;;5072434;28;20031;-86
2023/05/12 09:22:28;;;;;;;6.03;1.60;;;20.00;93.70;;;;;;5072420;28;20105;-86
2023/05/12 09:24:54;;;;;;;3.55;1.80;;;20.10;92.90;;;;;;5072546;28;20497;-84
2023/05/12 09:27:26;;;;;;;4.13;1.60;;;20.30;92.40;;;;;;5072708;28;20032;-85
2023/05/12 09:29:52;;;;;;;2.20;1.20;;;20.40;91.60;;;;;;5055632;28;20024;-86
2023/05/12 09:32:28;;;;;;;2.88;1.35;;;20.40;91.10;;;;;;5070966;28;20032;-83
2023/05/12 09:34:53;;;;;;;1.90;1.02;;;20.50;90.80;;;;;;5069713;28;20027;-83
2023/05/12 09:37:19;;;;;;;2.35;1.23;;;20.60;90.50;;;;;;5072069;28;20028;-84
2023/05/12 09:39:45;;;;;;;2.20;1.13;;;20.70;90.00;;;;;;5072174;28;20029;-83
2023/05/12 09:42:11;;;;;;;2.88;1.10;;;20.80;89.30;;;;;;5071846;28;20048;-83
2023/05/12 09:44:38;;;;;;;1.80;1.20;;;20.90;88.40;;;;;;5072053;28;20475;-80
2023/05/12 09:47:09;;;;;;;4.68;1.38;;;21.00;86.70;;;;;;5073134;28;20078;-83
2023/05/12 09:49:35;;;;;;;2.95;1.08;;;21.00;85.00;;;;;;5072688;28;20372;-84
2023/05/12 09:52:03;;;;;;;2.72;1.00;;;21.00;84.90;;;;;;5071299;28;20046;-84
2023/05/12 09:54:30;;;;;;;2.50;1.00;;;21.10;83.80;;;;;;5054727;28;20017;-84
2023/05/12 09:57:01;;;;;;;2.38;1.42;;;21.10;83.40;;;;;;5071398;28;20041;-84
2023/05/12 09:59:30;;;;;;;3.38;1.00;;;21.20;82.60;;;;;;5068975;28;20023;-84
2023/05/12 10:01:59;;;;;;;5.03;1.00;;;21.20;82.00;;;;;;5071283;28;20016;-83
2023/05/12 10:04:27;;;;;;;2.20;1.05;;;21.30;81.60;;;;;;5070026;28;20033;-82
2023/05/12 10:06:54;;;;;;;3.15;1.13;;;21.40;81.10;;;;;;5072762;28;20028;-83
2023/05/12 10:09:25;;;;;;;1.88;0.90;;;21.40;80.30;;;;;;5071884;28;20106;-84
2023/05/12 10:11:51;;;;;;;2.20;1.10;;;21.40;79.30;;;;;;5072996;28;20017;-84
2023/05/12 10:14:17;;;;;;;2.55;1.17;;;21.40;79.10;;;;;;5055414;28;20044;-86
2023/05/12 10:16:48;;;;;;;2.28;1.15;;;21.50;78.70;;;;;;5071554;28;20112;-85
2023/05/12 10:19:14;;;;;;;4.53;1.02;;;21.50;78.00;;;;;;5070502;28;20056;-85
2023/05/12 10:21:44;;;;;;;1.48;0.70;;;21.50;78.20;;;;;;5075436;28;20503;-88
2023/05/12 10:24:13;;;;;;;3.42;1.50;;;21.50;76.90;;;;;;5075690;28;20035;-86
2023/05/12 10:26:40;;;;;;;3.45;1.27;;;21.50;75.90;;;;;;5075683;28;20020;-86
2023/05/12 10:29:07;;;;;;;2.33;1.25;;;21.50;76.10;;;;;;5077060;28;20024;-83
2023/05/12 10:31:34;;;;;;;4.60;1.17;;;21.60;76.30;;;;;;5075784;28;20045;-86
2023/05/12 10:34:01;;;;;;;2.05;1.20;;;21.70;76.40;;;;;;5074468;28;20032;-83
2023/05/12 10:36:27;;;;;;;2.67;0.90;;;21.90;76.10;;;;;;5068516;28;20024;-86
2023/05/12 10:38:54;;;;;;;2.38;1.00;;;22.10;75.20;;;;;;5056433;28;20035;-86
2023/05/12 10:41:33;;;;;;;4.15;1.10;;;22.20;75.00;;;;;;5064842;28;20039;-86
2023/05/12 10:43:59;;;;;;;2.30;0.80;;;22.40;74.60;;;;;;5075094;28;20032;-86
2023/05/12 10:46:26;;;;;;;1.17;0.63;;;22.70;74.60;;;;;;5075559;28;20029;-84
2023/05/12 10:49:05;;;;;;;1.67;0.85;;;22.90;74.00;;;;;;5075449;28;20028;-85
2023/05/12 10:51:33;;;;;;;4.10;0.90;;;23.10;72.70;;;;;;5076824;28;20097;-84
2023/05/12 10:54:04;;;;;;;4.85;1.52;;;23.30;72.20;;;;;;5075113;28;20031;-87
2023/05/12 10:56:41;;;;;;;3.47;1.02;;;23.40;70.80;;;;;;5075450;28;20035;-85
2023/05/12 10:59:22;;;;;;;2.38;0.90;;;23.70;70.30;;;;;;5075513;28;20024;-87
2023/05/12 11:02:15;;;;;;;1.40;0.70;;;24.00;69.80;;;;;;5075066;28;20035;-87
2023/05/12 11:04:51;;;;;;;3.08;1.63;;;24.20;69.30;;;;;;5076264;28;20024;-86
2023/05/12 11:07:35;;;;;;;1.58;0.77;;;24.70;68.30;;;;;;5076336;28;20024;-85
2023/05/12 11:10:03;;;;;;;2.08;0.70;;;25.20;67.50;;;;;;5075934;28;20102;-84
2023/05/12 11:12:31;;;;;;;1.95;0.80;;;25.80;67.70;;;;;;5074816;28;20013;-87
2023/05/12 11:14:59;;;;;;;2.45;0.75;;;26.30;66.20;;;;;;5074967;28;20035;-89
2023/05/12 11:17:25;;;;;;;2.40;0.80;;;26.90;65.00;;;;;;5074764;28;20540;-85
2023/05/12 11:19:51;;;;;;;5.88;0.80;;;27.30;64.00;;;;;;5075116;28;20040;-84
2023/05/12 11:22:20;;;;;;;1.10;0.70;;;27.80;63.20;;;;;;5056933;28;20112;-87
2023/05/12 11:24:47;;;;;;;1.67;0.80;;;28.10;62.10;;;;;;5075048;28;20043;-86
2023/05/12 11:27:14;;;;;;;2.40;0.80;;;28.30;60.50;;;;;;5074729;28;20021;-88
2023/05/12 11:29:41;;;;;;;1.75;0.50;;;28.20;57.10;;;;;;5074872;28;20027;-85
2023/05/12 11:32:11;;;;;;;1.67;0.60;;;27.90;56.00;;;;;;5057577;28;20127;-87
2023/05/12 11:34:40;;;;;;;1.55;0.70;;;27.70;55.50;;;;;;5057966;28;20531;-87
2023/05/12 11:37:06;;;;;;;2.13;0.70;;;27.50;55.20;;;;;;5073851;28;20037;-86
2023/05/12 11:39:32;;;;;;;3.60;0.75;;;27.50;55.60;;;;;;5073674;28;20035;-86
2023/05/12 11:42:08;;;;;;;2.35;1.05;;;27.40;55.70;;;;;;5072509;28;20060;-87
2023/05/12 11:44:35;;;;;;;1.83;0.90;;;27.40;55.50;;;;;;5057491;28;20033;-86
2023/05/12 11:47:09;;;;;;;2.92;1.38;;;27.40;55.40;;;;;;5090889;28;20434;-86
2023/05/12 11:49:52;;;;;;;3.08;1.58;;;27.40;55.10;;;;;;5074076;28;20028;-85
2023/05/12 11:52:19;;;;;;;2.72;1.30;;;27.40;55.00;;;;;;5074414;28;20032;-87
2023/05/12 11:54:52;;;;;;;2.50;0.82;;;27.50;54.80;;;;;;5074277;28;20017;-86
2023/05/12 11:57:33;;;;;;;1.52;1.00;;;27.70;54.60;;;;;;5074154;28;20033;-87
2023/05/12 12:00:05;;;;;;;1.70;1.08;;;28.30;54.50;;;;;;5074039;28;20016;-86
2023/05/12 12:02:32;;;;;;;1.65;0.88;;;28.90;54.30;;;;;;5073727;28;20472;-87
2023/05/12 12:04:58;;;;;;;1.50;0.60;;;29.60;54.10;;;;;;5073211;28;20020;-89
2023/05/12 12:07:35;;;;;;;2.83;0.73;;;30.30;53.50;;;;;;5074727;28;20033;-84
2023/05/12 12:10:14;;;;;;;2.13;0.70;;;30.80;52.50;;;;;;5075002;28;20029;-87
2023/05/12 12:12:41;;;;;;;0.98;0.63;;;31.30;51.70;;;;;;5056998;28;20039;-83
2023/05/12 12:15:08;;;;;;;1.75;0.80;;;31.90;51.10;;;;;;5073779;28;20461;-86
2023/05/12 12:17:33;;;;;;;2.45;1.33;;;32.10;49.80;;;;;;5057010;28;20056;-88
2023/05/12 12:19:59;;;;;;;2.30;0.93;;;32.00;48.40;;;;;;5073595;28;20036;-87
2023/05/12 12:22:24;;;;;;;2.70;0.80;;;31.80;47.70;;;;;;5073878;28;20131;-84
2023/05/12 12:24:50;;;;;;;2.08;0.85;;;31.40;46.90;;;;;;5073530;28;20048;-83
2023/05/12 12:27:16;;;;;;;4.05;0.70;;;31.10;46.30;;;;;;5073286;28;20032;-84
2023/05/12 12:29:41;;;;;;;4.10;0.90;;;30.70;46.10;;;;;;5073620;28;20330;-84
2023/05/12 12:32:07;;;;;;;2.30;0.98;;;30.30;46.70;;;;;;5072177;28;20029;-83
2023/05/12 12:34:33;;;;;;;1.63;0.68;;;30.10;47.00;;;;;;5072302;28;20029;-84
2023/05/12 12:36:59;;;;;;;3.33;0.80;;;29.80;47.40;;;;;;5071177;28;20446;-84